Time;durP1;ratioP1;P1;durP2;ratioP2;P2;SDS_P1;SDS_P2;PMS_P1;PMS_P2;Temp;Humidity;BMP_temperature;BMP_pressure;BME280_temperature;BME280_humidity;BME280_pressure;Samples;Min_cycle;Max_cycle;Signal;HPM_P1;HPM_P2
2023/04/17 00:00:42;;;;;;;22.70;11.65;;;;;;;;;;6236365;23;20082;-80
2023/04/17 00:03:10;;;;;;;22.35;12.68;;;;;;;;;;6216007;23;20476;-80
2023/04/17 00:05:36;;;;;;;21.95;11.93;;;;;;;;;;6241175;22;20023;-80
2023/04/17 00:08:02;;;;;;;21.55;11.80;;;;;;;;;;6240833;23;20346;-80
2023/04/17 00:10:27;;;;;;;20.70;11.38;;;;;;;;;;6240940;23;20011;-80
2023/04/17 00:12:52;;;;;;;20.23;11.90;;;;;;;;;;6244063;22;20008;-80
2023/04/17 00:15:18;;;;;;;21.85;12.15;;;;;;;;;;6242811;22;20004;-80
2023/04/17 00:17:43;;;;;;;23.63;12.35;;;;;;;;;;6241313;22;20006;-80
2023/04/17 00:20:09;;;;;;;20.20;12.02;;;;;;;;;;6242615;22;20111;-80
2023/04/17 00:22:36;;;;;;;19.88;11.80;;;;;;;;;;6244272;22;20431;-81
2023/04/17 00:25:01;;;;;;;19.90;11.80;;;;;;;;;;6243173;22;20338;-80
2023/04/17 00:27:26;;;;;;;20.80;11.65;;;;;;;;;;6243613;22;20008;-80
2023/04/17 00:29:52;;;;;;;22.92;12.05;;;;;;;;;;6241847;23;20381;-80
2023/04/17 00:32:17;;;;;;;20.63;12.52;;;;;;;;;;6244265;22;20450;-80
2023/04/17 00:34:42;;;;;;;21.98;12.18;;;;;;;;;;6242839;23;20008;-80
2023/04/17 00:37:08;;;;;;;20.50;12.45;;;;;;;;;;6243824;22;20102;-80
2023/04/17 00:39:33;;;;;;;18.95;11.63;;;;;;;;;;6243793;23;20061;-80
2023/04/17 00:41:58;;;;;;;20.23;11.50;;;;;;;;;;6242512;23;20069;-80
2023/04/17 00:44:24;;;;;;;19.08;11.73;;;;;;;;;;6241960;23;20091;-80
2023/04/17 00:46:50;;;;;;;20.15;11.73;;;;;;;;;;6244674;22;20381;-79
2023/04/17 00:49:15;;;;;;;22.35;12.13;;;;;;;;;;6243744;22;20007;-80
2023/04/17 00:51:41;;;;;;;19.50;11.60;;;;;;;;;;6241197;23;19996;-80
2023/04/17 00:54:07;;;;;;;20.67;11.88;;;;;;;;;;6243529;22;20004;-80
2023/04/17 00:56:32;;;;;;;18.42;12.05;;;;;;;;;;6243838;22;20008;-80
2023/04/17 00:58:59;;;;;;;19.65;12.23;;;;;;;;;;6240993;23;20003;-80
2023/04/17 01:01:25;;;;;;;19.20;11.48;;;;;;;;;;6244546;22;20004;-80
2023/04/17 01:03:50;;;;;;;17.83;11.23;;;;;;;;;;6242108;23;20057;-79
2023/04/17 01:06:16;;;;;;;20.35;11.43;;;;;;;;;;6244857;22;20000;-80
2023/04/17 01:08:42;;;;;;;19.83;11.68;;;;;;;;;;6243574;22;20005;-81
2023/04/17 01:11:11;;;;;;;19.83;10.88;;;;;;;;;;6246075;22;20004;-81
2023/04/17 01:13:46;;;;;;;19.08;11.40;;;;;;;;;;6242935;23;20484;-80
2023/04/17 01:16:12;;;;;;;22.98;12.50;;;;;;;;;;6243156;23;20435;-80
2023/04/17 01:18:38;;;;;;;19.50;11.13;;;;;;;;;;6243619;22;20086;-80
2023/04/17 01:21:03;;;;;;;18.33;11.35;;;;;;;;;;6241966;23;19992;-80
2023/04/17 01:23:28;;;;;;;20.23;11.75;;;;;;;;;;6241712;22;20380;-80
2023/04/17 01:25:54;;;;;;;19.75;11.40;;;;;;;;;;6243063;22;20007;-80
2023/04/17 01:28:19;;;;;;;19.83;11.32;;;;;;;;;;6239617;23;20099;-80
2023/04/17 01:30:45;;;;;;;21.35;12.02;;;;;;;;;;6242147;23;20338;-80
2023/04/17 01:33:10;;;;;;;21.08;11.55;;;;;;;;;;6240031;22;20058;-80
2023/04/17 01:35:36;;;;;;;19.20;10.75;;;;;;;;;;6243118;22;20334;-80
2023/04/17 01:38:01;;;;;;;19.17;10.80;;;;;;;;;;6243470;22;20000;-80
2023/04/17 01:40:26;;;;;;;18.83;10.75;;;;;;;;;;6241526;23;20000;-80
2023/04/17 01:42:52;;;;;;;18.30;10.93;;;;;;;;;;6239577;23;20019;-80
2023/04/17 01:45:17;;;;;;;18.83;10.63;;;;;;;;;;6242875;23;20007;-79
2023/04/17 01:47:43;;;;;;;18.08;10.93;;;;;;;;;;6241671;22;20007;-80
2023/04/17 01:50:08;;;;;;;17.83;10.75;;;;;;;;;;6241194;23;20004;-80
2023/04/17 01:52:35;;;;;;;16.92;10.27;;;;;;;;;;6244344;22;20522;-80
2023/04/17 01:55:02;;;;;;;16.98;9.95;;;;;;;;;;6242012;23;20427;-80
2023/04/17 01:57:28;;;;;;;17.65;10.90;;;;;;;;;;6242891;23;20008;-80
2023/04/17 01:59:53;;;;;;;19.70;10.63;;;;;;;;;;6243101;22;20010;-80
2023/04/17 02:02:18;;;;;;;18.83;10.43;;;;;;;;;;6242714;22;20360;-80
2023/04/17 02:04:44;;;;;;;17.65;9.45;;;;;;;;;;6243025;23;20248;-80
2023/04/17 02:07:09;;;;;;;17.27;10.82;;;;;;;;;;6244141;22;20076;-80
2023/04/17 02:09:35;;;;;;;17.23;10.13;;;;;;;;;;6242863;23;20004;-80
2023/04/17 02:12:00;;;;;;;19.02;10.82;;;;;;;;;;6240861;23;20012;-80
2023/04/17 02:14:25;;;;;;;18.70;10.52;;;;;;;;;;6241052;23;20477;-80
2023/04/17 02:16:52;;;;;;;19.77;10.95;;;;;;;;;;6242493;22;20006;-80
2023/04/17 02:19:18;;;;;;;19.27;11.15;;;;;;;;;;6241270;23;20008;-79
2023/04/17 02:21:43;;;;;;;17.45;10.20;;;;;;;;;;6244815;22;20000;-81
2023/04/17 02:24:08;;;;;;;19.25;10.57;;;;;;;;;;6241867;22;20008;-80
2023/04/17 02:26:35;;;;;;;17.95;9.77;;;;;;;;;;6239433;22;20039;-80
2023/04/17 02:29:00;;;;;;;18.83;11.05;;;;;;;;;;6241589;23;20058;-79
2023/04/17 02:31:26;;;;;;;18.33;11.30;;;;;;;;;;6239799;22;20419;-80
2023/04/17 02:33:51;;;;;;;16.95;10.25;;;;;;;;;;6241329;22;20008;-80
2023/04/17 02:36:16;;;;;;;18.10;10.95;;;;;;;;;;6237839;23;20016;-80
2023/04/17 02:38:42;;;;;;;19.00;10.30;;;;;;;;;;6239486;22;20046;-80
2023/04/17 02:41:07;;;;;;;16.58;10.00;;;;;;;;;;6240243;23;20004;-80
2023/04/17 02:43:32;;;;;;;18.67;10.98;;;;;;;;;;6243075;22;20012;-80
2023/04/17 02:45:58;;;;;;;16.50;10.35;;;;;;;;;;6243453;22;20422;-80
2023/04/17 02:48:23;;;;;;;20.92;11.40;;;;;;;;;;6241444;23;20000;-80
2023/04/17 02:50:49;;;;;;;19.20;10.75;;;;;;;;;;6242276;23;20315;-80
2023/04/17 02:53:14;;;;;;;19.38;9.82;;;;;;;;;;6240947;23;20007;-80
2023/04/17 02:55:39;;;;;;;17.85;10.18;;;;;;;;;;6243088;23;20066;-80
2023/04/17 02:58:05;;;;;;;19.23;10.25;;;;;;;;;;6244015;23;20008;-80
2023/04/17 03:00:30;;;;;;;20.38;10.88;;;;;;;;;;6241932;23;20254;-80
2023/04/17 03:02:56;;;;;;;16.88;10.20;;;;;;;;;;6242651;23;20004;-80
2023/04/17 03:05:24;;;;;;;16.88;9.55;;;;;;;;;;6241693;23;20004;-80
2023/04/17 03:07:50;;;;;;;18.40;10.15;;;;;;;;;;6241327;22;20075;-80
2023/04/17 03:10:16;;;;;;;19.92;10.43;;;;;;;;;;6241835;23;20066;-80
2023/04/17 03:12:41;;;;;;;19.95;10.75;;;;;;;;;;6241636;22;20004;-80
2023/04/17 03:15:07;;;;;;;21.23;11.45;;;;;;;;;;6242365;23;20015;-80
2023/04/17 03:17:33;;;;;;;17.67;10.23;;;;;;;;;;6243361;22;20000;-80
2023/04/17 03:19:58;;;;;;;18.65;10.02;;;;;;;;;;6244193;22;19996;-80
2023/04/17 03:22:23;;;;;;;18.63;10.43;;;;;;;;;;6240591;23;20008;-80
2023/04/17 03:24:49;;;;;;;20.05;11.00;;;;;;;;;;6243928;22;20000;-80
2023/04/17 03:27:14;;;;;;;19.45;10.60;;;;;;;;;;6239559;23;20008;-80
2023/04/17 03:29:40;;;;;;;18.45;10.68;;;;;;;;;;6243339;22;20036;-80
2023/04/17 03:32:05;;;;;;;19.73;10.55;;;;;;;;;;6244005;22;20015;-80
2023/04/17 03:34:30;;;;;;;17.33;10.35;;;;;;;;;;6240500;23;20015;-80
2023/04/17 03:36:57;;;;;;;17.95;10.32;;;;;;;;;;6240969;23;20008;-80
2023/04/17 03:39:22;;;;;;;20.40;10.85;;;;;;;;;;6238526;23;20004;-80
2023/04/17 03:41:48;;;;;;;16.63;9.63;;;;;;;;;;6242449;22;20011;-79
2023/04/17 03:44:13;;;;;;;18.98;10.48;;;;;;;;;;6242952;22;20010;-80
2023/04/17 03:46:39;;;;;;;19.67;10.85;;;;;;;;;;6241341;22;20032;-80
2023/04/17 03:49:04;;;;;;;20.88;10.68;;;;;;;;;;6240824;22;20004;-80
2023/04/17 03:51:30;;;;;;;20.52;12.13;;;;;;;;;;6240945;23;20001;-80
2023/04/17 03:53:56;;;;;;;18.27;10.90;;;;;;;;;;6239961;22;20008;-80
2023/04/17 03:56:21;;;;;;;20.90;11.18;;;;;;;;;;6238393;23;20942;-80
2023/04/17 03:58:47;;;;;;;20.83;11.25;;;;;;;;;;6242444;22;20351;-80
2023/04/17 04:01:13;;;;;;;21.10;11.18;;;;;;;;;;6237732;23;20000;-80
2023/04/17 04:03:39;;;;;;;20.90;11.90;;;;;;;;;;6238659;23;20027;-80
2023/04/17 04:06:06;;;;;;;20.13;11.23;;;;;;;;;;6240794;22;20004;-80
2023/04/17 04:08:31;;;;;;;22.17;11.38;;;;;;;;;;6240997;22;20000;-80
2023/04/17 04:10:57;;;;;;;20.02;10.82;;;;;;;;;;6238601;23;20506;-80
2023/04/17 04:13:22;;;;;;;21.42;11.88;;;;;;;;;;6240987;22;20083;-80
2023/04/17 04:15:47;;;;;;;20.38;12.13;;;;;;;;;;6241521;23;20008;-80
2023/04/17 04:18:13;;;;;;;19.83;11.45;;;;;;;;;;6237861;23;20015;-80
2023/04/17 04:20:38;;;;;;;20.73;12.60;;;;;;;;;;6241542;22;20410;-80
2023/04/17 04:23:03;;;;;;;19.38;11.38;;;;;;;;;;6241152;23;20023;-80
2023/04/17 04:25:29;;;;;;;21.73;11.35;;;;;;;;;;6241186;23;20000;-80
2023/04/17 04:27:55;;;;;;;22.63;12.77;;;;;;;;;;6240172;22;20008;-80
2023/04/17 04:30:21;;;;;;;20.90;11.43;;;;;;;;;;6240426;22;20339;-80
2023/04/17 04:32:46;;;;;;;23.15;12.38;;;;;;;;;;6238559;23;20088;-79
2023/04/17 04:35:13;;;;;;;21.58;11.98;;;;;;;;;;6243327;22;20008;-80
2023/04/17 04:37:41;;;;;;;22.88;12.05;;;;;;;;;;6238051;23;20099;-80
2023/04/17 04:40:09;;;;;;;21.63;12.02;;;;;;;;;;6235533;23;20446;-80
2023/04/17 04:42:41;;;;;;;22.10;12.40;;;;;;;;;;6242000;23;20011;-81
2023/04/17 04:45:08;;;;;;;22.23;12.32;;;;;;;;;;6238696;23;20490;-80
2023/04/17 04:47:33;;;;;;;22.63;12.55;;;;;;;;;;6236732;23;20082;-80
2023/04/17 04:49:59;;;;;;;23.02;11.90;;;;;;;;;;6241818;22;20424;-80
2023/04/17 04:52:25;;;;;;;23.42;12.43;;;;;;;;;;6238919;23;20012;-80
2023/04/17 04:54:51;;;;;;;24.83;11.93;;;;;;;;;;6241630;23;20099;-80
2023/04/17 04:57:16;;;;;;;23.98;12.88;;;;;;;;;;6237760;22;20038;-80
2023/04/17 04:59:41;;;;;;;20.40;12.43;;;;;;;;;;6238614;22;20012;-79
2023/04/17 05:02:07;;;;;;;19.88;11.18;;;;;;;;;;6237924;22;20027;-80
2023/04/17 05:04:33;;;;;;;20.08;11.23;;;;;;;;;;6235219;23;20008;-80
2023/04/17 05:06:58;;;;;;;20.23;11.30;;;;;;;;;;6241627;22;20007;-80
2023/04/17 05:09:23;;;;;;;23.83;12.60;;;;;;;;;;6244348;22;20058;-80
2023/04/17 05:11:49;;;;;;;21.40;12.00;;;;;;;;;;6237118;23;20005;-80
2023/04/17 05:14:14;;;;;;;22.48;12.20;;;;;;;;;;6244199;22;20004;-80
2023/04/17 05:16:40;;;;;;;22.83;12.70;;;;;;;;;;6245395;23;20000;-80
2023/04/17 05:19:05;;;;;;;21.08;11.10;;;;;;;;;;6218216;23;20019;-80
2023/04/17 05:21:31;;;;;;;27.25;12.68;;;;;;;;;;6240386;23;20000;-80
2023/04/17 05:23:56;;;;;;;22.27;11.70;;;;;;;;;;6244866;22;20012;-80
2023/04/17 05:26:21;;;;;;;22.65;12.10;;;;;;;;;;6243965;23;20066;-80
2023/04/17 05:28:47;;;;;;;22.75;12.50;;;;;;;;;;6243224;23;20075;-80
2023/04/17 05:31:13;;;;;;;20.85;11.68;;;;;;;;;;6246113;22;20007;-80
2023/04/17 05:33:38;;;;;;;22.30;11.88;;;;;;;;;;6245037;23;20019;-80
2023/04/17 05:36:04;;;;;;;21.55;13.35;;;;;;;;;;6246166;22;19996;-80
2023/04/17 05:38:30;;;;;;;25.02;13.05;;;;;;;;;;6246795;22;20007;-81
2023/04/17 05:40:55;;;;;;;24.95;13.02;;;;;;;;;;6243869;23;20000;-80
2023/04/17 05:43:21;;;;;;;23.08;12.65;;;;;;;;;;6245702;22;20087;-80
2023/04/17 05:45:47;;;;;;;23.55;12.02;;;;;;;;;;6244419;23;20004;-80
2023/04/17 05:48:12;;;;;;;24.90;12.02;;;;;;;;;;6244194;23;20396;-80
2023/04/17 05:50:38;;;;;;;25.23;13.32;;;;;;;;;;6244309;23;20015;-80
2023/04/17 05:53:03;;;;;;;23.65;11.93;;;;;;;;;;6244686;23;20029;-81
2023/04/17 05:55:29;;;;;;;24.83;13.23;;;;;;;;;;6245265;23;20000;-81
2023/04/17 05:57:54;;;;;;;23.10;12.38;;;;;;;;;;6245511;22;20075;-80
2023/04/17 06:00:20;;;;;;;25.50;12.82;;;;;;;;;;6243404;23;20024;-80
2023/04/17 06:02:45;;;;;;;25.33;13.15;;;;;;;;;;6244457;22;20011;-80
2023/04/17 06:05:10;;;;;;;27.50;12.45;;;;;;;;;;6242610;23;20044;-81
2023/04/17 06:07:39;;;;;;;26.42;13.02;;;;;;;;;;6246186;22;20434;-80
2023/04/17 06:10:05;;;;;;;25.88;12.73;;;;;;;;;;6244464;23;20442;-80
2023/04/17 06:12:31;;;;;;;26.45;13.57;;;;;;;;;;6244452;23;20142;-81
2023/04/17 06:14:56;;;;;;;28.98;13.88;;;;;;;;;;6242230;23;20035;-80
2023/04/17 06:17:22;;;;;;;24.67;13.73;;;;;;;;;;6244336;23;20399;-80
2023/04/17 06:19:47;;;;;;;29.67;13.55;;;;;;;;;;6245914;22;20022;-80
2023/04/17 06:22:13;;;;;;;23.75;12.98;;;;;;;;;;6245580;22;20092;-81
2023/04/17 06:24:38;;;;;;;24.63;12.70;;;;;;;;;;6243692;22;20050;-80
2023/04/17 06:27:03;;;;;;;26.00;13.70;;;;;;;;;;6244311;22;20410;-80
2023/04/17 06:29:29;;;;;;;23.42;12.68;;;;;;;;;;6244513;23;20000;-80
2023/04/17 06:31:55;;;;;;;23.60;12.10;;;;;;;;;;6243919;23;20004;-80
2023/04/17 06:34:20;;;;;;;25.10;13.32;;;;;;;;;;6243775;23;20000;-81
2023/04/17 06:36:46;;;;;;;26.23;12.77;;;;;;;;;;6244005;23;20006;-81
2023/04/17 06:39:12;;;;;;;24.10;12.80;;;;;;;;;;6245739;22;20335;-80
2023/04/17 06:41:37;;;;;;;23.02;13.18;;;;;;;;;;6244443;23;20000;-81
2023/04/17 06:44:03;;;;;;;26.27;12.73;;;;;;;;;;6245909;22;20008;-80
2023/04/17 06:46:28;;;;;;;23.35;12.50;;;;;;;;;;6243209;23;20126;-80
2023/04/17 06:48:56;;;;;;;23.17;12.45;;;;;;;;;;6245915;22;20004;-80
2023/04/17 06:51:24;;;;;;;21.48;12.52;;;;;;;;;;6244126;23;20000;-81
2023/04/17 06:53:49;;;;;;;21.00;12.05;;;;;;;;;;6246098;22;20003;-80
2023/04/17 06:56:15;;;;;;;22.38;12.77;;;;;;;;;;6243425;23;20426;-80
2023/04/17 06:58:44;;;;;;;20.50;11.95;;;;;;;;;;6245695;23;20011;-80
2023/04/17 07:01:13;;;;;;;23.75;12.57;;;;;;;;;;6245228;22;20026;-80
2023/04/17 07:03:39;;;;;;;20.27;12.60;;;;;;;;;;6245088;22;20016;-80
2023/04/17 07:06:05;;;;;;;21.20;11.88;;;;;;;;;;6242413;23;20083;-81
2023/04/17 07:08:31;;;;;;;21.25;12.48;;;;;;;;;;6243876;23;20008;-80
2023/04/17 07:10:56;;;;;;;23.17;13.18;;;;;;;;;;6243967;23;20000;-80
2023/04/17 07:13:21;;;;;;;21.23;11.60;;;;;;;;;;6244055;23;20008;-80
2023/04/17 07:15:52;;;;;;;20.10;11.77;;;;;;;;;;6243400;23;20011;-81
2023/04/17 07:18:18;;;;;;;21.42;11.77;;;;;;;;;;6243447;22;20000;-80
2023/04/17 07:20:43;;;;;;;19.25;11.13;;;;;;;;;;6245763;22;20390;-81
2023/04/17 07:23:08;;;;;;;19.08;11.32;;;;;;;;;;6243878;22;20018;-81
2023/04/17 07:25:34;;;;;;;20.33;11.77;;;;;;;;;;6244273;22;20058;-81
2023/04/17 07:27:59;;;;;;;22.20;12.82;;;;;;;;;;6243904;23;20008;-81
2023/04/17 07:30:24;;;;;;;25.15;12.85;;;;;;;;;;6245228;22;20011;-81
2023/04/17 07:32:50;;;;;;;23.10;13.13;;;;;;;;;;6245475;22;20000;-80
2023/04/17 07:35:15;;;;;;;21.80;11.85;;;;;;;;;;6243014;23;20036;-80
2023/04/17 07:37:40;;;;;;;19.30;12.07;;;;;;;;;;6245283;22;20331;-80
2023/04/17 07:40:08;;;;;;;24.98;11.75;;;;;;;;;;6242723;23;20429;-80
2023/04/17 07:42:33;;;;;;;23.30;11.88;;;;;;;;;;6243752;23;20035;-80
2023/04/17 07:44:59;;;;;;;22.20;11.77;;;;;;;;;;6244875;22;20008;-80
2023/04/17 07:47:24;;;;;;;26.42;12.85;;;;;;;;;;6243531;23;20095;-80
2023/04/17 07:49:50;;;;;;;23.20;13.20;;;;;;;;;;6245352;22;20004;-80
2023/04/17 07:52:16;;;;;;;22.35;13.02;;;;;;;;;;6243973;23;20000;-80
2023/04/17 07:54:42;;;;;;;22.63;12.85;;;;;;;;;;6242908;23;20012;-80
2023/04/17 07:57:09;;;;;;;20.67;11.45;;;;;;;;;;6244810;22;20016;-80
2023/04/17 07:59:35;;;;;;;21.17;11.98;;;;;;;;;;6243830;23;20444;-80
2023/04/17 08:02:01;;;;;;;22.42;13.30;;;;;;;;;;6245323;22;20004;-80
2023/04/17 08:04:27;;;;;;;23.25;13.18;;;;;;;;;;6245361;22;20015;-80
2023/04/17 08:06:52;;;;;;;22.90;12.55;;;;;;;;;;6244467;22;20008;-81
2023/04/17 08:09:19;;;;;;;23.13;13.25;;;;;;;;;;6244363;22;20022;-80
2023/04/17 08:11:44;;;;;;;21.63;12.48;;;;;;;;;;6243044;23;20004;-80
2023/04/17 08:14:10;;;;;;;21.40;10.95;;;;;;;;;;6245407;22;20053;-80
2023/04/17 08:16:36;;;;;;;22.55;11.98;;;;;;;;;;6244705;22;20008;-81
2023/04/17 08:19:01;;;;;;;22.17;12.27;;;;;;;;;;6243642;23;20004;-80
2023/04/17 08:21:27;;;;;;;21.63;13.55;;;;;;;;;;6245210;22;19997;-80
2023/04/17 08:23:52;;;;;;;25.20;12.90;;;;;;;;;;6244457;22;20465;-81
2023/04/17 08:26:19;;;;;;;21.98;12.70;;;;;;;;;;6217347;23;20012;-80
2023/04/17 08:28:45;;;;;;;23.85;13.38;;;;;;;;;;6243781;23;20007;-80
2023/04/17 08:31:10;;;;;;;21.20;12.30;;;;;;;;;;6243582;23;20004;-81
2023/04/17 08:33:36;;;;;;;22.95;13.45;;;;;;;;;;6243553;23;20015;-80
2023/04/17 08:36:01;;;;;;;24.38;12.88;;;;;;;;;;6244417;22;20004;-80
2023/04/17 08:38:28;;;;;;;22.40;12.68;;;;;;;;;;6245200;22;20074;-81
2023/04/17 08:40:57;;;;;;;21.85;13.10;;;;;;;;;;6245337;22;20000;-80
2023/04/17 08:43:25;;;;;;;22.77;12.88;;;;;;;;;;6245496;22;20771;-80
2023/04/17 08:45:54;;;;;;;25.17;12.93;;;;;;;;;;6245388;23;20004;-80
2023/04/17 08:48:21;;;;;;;20.75;12.73;;;;;;;;;;6245546;23;20057;-81
2023/04/17 08:50:47;;;;;;;22.70;13.07;;;;;;;;;;6245398;23;20043;-80
2023/04/17 08:53:13;;;;;;;24.65;14.25;;;;;;;;;;6246757;22;20081;-81
2023/04/17 08:55:38;;;;;;;23.80;13.65;;;;;;;;;;6245016;23;20008;-81
2023/04/17 08:58:05;;;;;;;22.08;13.30;;;;;;;;;;6245043;23;20394;-80
2023/04/17 09:00:38;;;;;;;23.20;13.85;;;;;;;;;;6246315;22;20011;-80
2023/04/17 09:03:09;;;;;;;22.80;14.07;;;;;;;;;;6246777;22;20079;-81
2023/04/17 09:05:36;;;;;;;21.08;13.07;;;;;;;;;;6246614;22;20054;-80
2023/04/17 09:08:06;;;;;;;22.20;13.73;;;;;;;;;;6246390;22;20007;-81
2023/04/17 09:10:39;;;;;;;23.08;14.00;;;;;;;;;;6245753;22;19996;-80
2023/04/17 09:13:05;;;;;;;27.63;15.43;;;;;;;;;;6246535;22;20007;-81
2023/04/17 09:15:35;;;;;;;23.98;14.27;;;;;;;;;;6219876;23;20014;-80
2023/04/17 09:18:01;;;;;;;24.40;14.93;;;;;;;;;;6246718;22;20010;-80
2023/04/17 09:20:26;;;;;;;23.23;14.00;;;;;;;;;;6245074;23;19997;-80
2023/04/17 09:23:03;;;;;;;27.17;15.30;;;;;;;;;;6243380;22;20034;-80
2023/04/17 09:25:29;;;;;;;22.67;14.23;;;;;;;;;;6245576;22;20047;-80
2023/04/17 09:28:07;;;;;;;23.40;14.73;;;;;;;;;;6243988;23;20338;-80
2023/04/17 09:30:35;;;;;;;24.08;15.10;;;;;;;;;;6244963;23;20003;-80
2023/04/17 09:33:06;;;;;;;27.48;14.57;;;;;;;;;;6245626;22;20427;-80
2023/04/17 09:35:32;;;;;;;28.10;15.82;;;;;;;;;;6245783;22;20130;-81
2023/04/17 09:38:00;;;;;;;28.88;15.80;;;;;;;;;;6245065;22;20376;-80
2023/04/17 09:40:34;;;;;;;25.77;14.85;;;;;;;;;;6245347;23;20445;-80
2023/04/17 09:43:02;;;;;;;26.23;15.80;;;;;;;;;;6245732;22;20008;-80
2023/04/17 09:45:34;;;;;;;27.38;15.73;;;;;;;;;;6244432;23;20008;-81
2023/04/17 09:48:00;;;;;;;27.23;14.95;;;;;;;;;;6244931;23;20004;-80
2023/04/17 09:50:26;;;;;;;28.10;16.27;;;;;;;;;;6244788;23;20000;-80
2023/04/17 09:52:52;;;;;;;24.60;14.73;;;;;;;;;;6245227;22;20053;-81
2023/04/17 09:55:22;;;;;;;26.48;16.48;;;;;;;;;;6246353;22;20023;-80
2023/04/17 09:57:55;;;;;;;25.38;15.05;;;;;;;;;;6244878;23;20378;-80
2023/04/17 10:00:22;;;;;;;;;;;;;;;;;;6246663;22;20001;-80
2023/04/17 10:02:50;;;;;;;27.85;15.63;;;;;;;;;;6246049;22;19915;-81
2023/04/17 10:05:23;;;;;;;26.67;16.17;;;;;;;;;;6243494;22;20004;-80
2023/04/17 10:07:49;;;;;;;28.40;16.50;;;;;;;;;;6242330;23;20087;-80
2023/04/17 10:10:30;;;;;;;31.35;16.85;;;;;;;;;;6244762;23;20338;-80
2023/04/17 10:12:59;;;;;;;30.60;16.38;;;;;;;;;;6246227;22;20233;-81
2023/04/17 10:15:25;;;;;;;26.33;15.82;;;;;;;;;;6244916;22;20130;-80
2023/04/17 10:17:51;;;;;;;27.15;15.70;;;;;;;;;;6245175;22;20375;-80
2023/04/17 10:20:16;;;;;;;28.23;16.75;;;;;;;;;;6244706;23;20007;-81
2023/04/17 10:22:53;;;;;;;25.40;16.33;;;;;;;;;;6243931;23;20016;-80
2023/04/17 10:25:21;;;;;;;25.83;15.85;;;;;;;;;;6245852;22;20019;-81
2023/04/17 10:27:50;;;;;;;29.00;16.73;;;;;;;;;;6245467;22;20000;-81
2023/04/17 10:30:16;;;;;;;26.23;15.60;;;;;;;;;;6246175;22;20369;-80
2023/04/17 10:32:44;;;;;;;25.70;15.88;;;;;;;;;;6245870;22;20008;-81
2023/04/17 10:35:15;;;;;;;26.65;16.85;;;;;;;;;;6243545;23;20493;-81
2023/04/17 10:37:47;;;;;;;26.30;15.43;;;;;;;;;;6244234;23;20007;-81
2023/04/17 10:40:33;;;;;;;26.65;16.00;;;;;;;;;;6245923;22;20075;-81
2023/04/17 10:43:10;;;;;;;24.10;16.08;;;;;;;;;;6244963;22;20484;-81
2023/04/17 10:46:08;;;;;;;27.77;16.35;;;;;;;;;;6244005;23;20054;-81
2023/04/17 10:48:43;;;;;;;27.92;15.23;;;;;;;;;;6227809;23;20004;-81
2023/04/17 10:51:22;;;;;;;26.17;14.20;;;;;;;;;;6244262;23;20008;-80
2023/04/17 10:53:50;;;;;;;23.75;15.10;;;;;;;;;;6245777;22;20004;-81
2023/04/17 10:56:34;;;;;;;24.00;14.10;;;;;;;;;;6243087;23;20394;-80
2023/04/17 10:59:13;;;;;;;21.75;13.75;;;;;;;;;;6244227;23;20133;-81
2023/04/17 11:01:58;;;;;;;26.08;14.32;;;;;;;;;;6245411;22;20000;-81
2023/04/17 11:04:24;;;;;;;25.33;15.05;;;;;;;;;;6244515;22;20083;-81
2023/04/17 11:06:54;;;;;;;22.98;14.65;;;;;;;;;;6243993;22;20015;-81
2023/04/17 11:09:20;;;;;;;24.90;14.65;;;;;;;;;;6245771;22;20083;-81
2023/04/17 11:11:46;;;;;;;25.90;15.90;;;;;;;;;;6243542;23;20424;-80
2023/04/17 11:14:15;;;;;;;26.05;15.63;;;;;;;;;;6245838;22;20027;-81
2023/04/17 11:16:42;;;;;;;25.85;15.15;;;;;;;;;;6245034;22;20426;-80
2023/04/17 11:19:17;;;;;;;26.90;15.15;;;;;;;;;;6242439;23;20008;-80
2023/04/17 11:21:43;;;;;;;23.30;14.10;;;;;;;;;;6244499;22;20008;-81
2023/04/17 11:24:09;;;;;;;23.88;15.48;;;;;;;;;;6243262;22;20031;-81
2023/04/17 11:26:45;;;;;;;23.63;14.57;;;;;;;;;;6242844;23;20012;-81
2023/04/17 11:29:21;;;;;;;24.38;14.18;;;;;;;;;;6243163;22;20035;-81
2023/04/17 11:31:50;;;;;;;20.45;13.73;;;;;;;;;;6245514;22;20031;-81
2023/04/17 11:34:16;;;;;;;23.27;14.32;;;;;;;;;;6245627;22;20007;-81
2023/04/17 11:36:52;;;;;;;20.92;12.77;;;;;;;;;;6245237;22;20004;-80
2023/04/17 11:39:19;;;;;;;21.77;13.70;;;;;;;;;;6243260;23;20039;-81
2023/04/17 11:41:45;;;;;;;20.08;12.70;;;;;;;;;;6243890;23;20000;-81
2023/04/17 11:44:19;;;;;;;19.55;12.88;;;;;;;;;;6243298;23;20035;-81
2023/04/17 11:46:57;;;;;;;23.00;12.80;;;;;;;;;;6244359;22;20004;-80
2023/04/17 11:49:27;;;;;;;21.52;12.40;;;;;;;;;;6243337;23;20105;-81
2023/04/17 11:51:53;;;;;;;22.10;12.82;;;;;;;;;;6245043;22;19997;-81
2023/04/17 11:54:29;;;;;;;21.73;13.85;;;;;;;;;;6245501;22;20008;-81
2023/04/17 11:57:01;;;;;;;19.67;12.63;;;;;;;;;;6245132;22;20024;-81
2023/04/17 11:59:34;;;;;;;19.77;13.25;;;;;;;;;;6244840;22;20004;-81
2023/04/17 12:02:00;;;;;;;18.92;11.77;;;;;;;;;;6243690;23;20086;-80
2023/04/17 12:04:32;;;;;;;17.80;12.13;;;;;;;;;;6243931;23;20423;-81
2023/04/17 12:06:58;;;;;;;20.50;12.88;;;;;;;;;;6243540;23;20004;-81
2023/04/17 12:09:26;;;;;;;19.17;12.65;;;;;;;;;;6244885;22;20012;-79
2023/04/17 12:11:52;;;;;;;17.98;11.52;;;;;;;;;;6244437;22;20103;-80
2023/04/17 12:14:18;;;;;;;17.70;12.15;;;;;;;;;;6243887;22;20438;-81
2023/04/17 12:16:46;;;;;;;19.33;11.57;;;;;;;;;;6245524;23;20000;-81
2023/04/17 12:19:15;;;;;;;19.10;10.95;;;;;;;;;;6244352;23;20012;-81
2023/04/17 12:21:40;;;;;;;16.08;11.07;;;;;;;;;;6246456;22;20003;-81
2023/04/17 12:24:06;;;;;;;17.52;10.75;;;;;;;;;;6247010;22;20008;-81
2023/04/17 12:26:31;;;;;;;18.60;11.05;;;;;;;;;;6246329;22;20053;-81
2023/04/17 12:28:56;;;;;;;20.85;11.85;;;;;;;;;;6247240;22;20028;-81
2023/04/17 12:31:22;;;;;;;16.77;11.13;;;;;;;;;;6246236;22;20004;-81
2023/04/17 12:33:47;;;;;;;19.30;11.43;;;;;;;;;;6246164;23;20008;-81
2023/04/17 12:36:13;;;;;;;16.42;10.95;;;;;;;;;;6245686;23;20453;-81
2023/04/17 12:38:38;;;;;;;18.90;11.23;;;;;;;;;;6245465;23;20091;-81
2023/04/17 12:41:03;;;;;;;17.88;10.90;;;;;;;;;;6246248;22;20050;-80
2023/04/17 12:43:31;;;;;;;15.93;10.63;;;;;;;;;;6244803;23;20012;-80
2023/04/17 12:45:57;;;;;;;15.93;9.95;;;;;;;;;;6245571;23;20389;-79
2023/04/17 12:48:22;;;;;;;14.93;9.60;;;;;;;;;;6245286;23;20004;-80
2023/04/17 12:50:47;;;;;;;15.10;9.55;;;;;;;;;;6246548;22;20007;-80
2023/04/17 12:53:14;;;;;;;14.55;9.52;;;;;;;;;;6245353;23;20022;-81
2023/04/17 12:55:40;;;;;;;13.93;9.18;;;;;;;;;;6246596;22;20011;-81
2023/04/17 12:58:07;;;;;;;12.68;8.90;;;;;;;;;;6246874;22;20075;-79
2023/04/17 13:00:33;;;;;;;18.08;9.95;;;;;;;;;;6245317;23;20063;-80
2023/04/17 13:02:59;;;;;;;14.13;9.02;;;;;;;;;;6245187;23;20016;-80
2023/04/17 13:05:26;;;;;;;17.13;10.30;;;;;;;;;;6246759;22;20430;-80
2023/04/17 13:07:52;;;;;;;15.95;9.63;;;;;;;;;;6244017;23;20338;-81
2023/04/17 13:10:17;;;;;;;15.23;9.45;;;;;;;;;;6244895;23;20007;-81
2023/04/17 13:12:43;;;;;;;13.70;9.32;;;;;;;;;;6219778;23;20501;-80
2023/04/17 13:15:08;;;;;;;13.80;8.73;;;;;;;;;;6244526;23;20012;-81
2023/04/17 13:17:34;;;;;;;12.68;8.60;;;;;;;;;;6246824;22;20004;-81
2023/04/17 13:20:00;;;;;;;13.02;8.35;;;;;;;;;;6244229;23;20028;-80
2023/04/17 13:22:25;;;;;;;13.88;9.00;;;;;;;;;;6244114;22;20011;-80
2023/04/17 13:24:50;;;;;;;15.50;9.27;;;;;;;;;;6245153;23;20000;-81
2023/04/17 13:27:16;;;;;;;20.00;10.35;;;;;;;;;;6246175;22;20000;-80
2023/04/17 13:29:41;;;;;;;17.20;9.80;;;;;;;;;;6246124;22;20004;-79
2023/04/17 13:32:08;;;;;;;14.05;8.70;;;;;;;;;;6244909;23;20489;-80
2023/04/17 13:34:33;;;;;;;11.80;7.95;;;;;;;;;;6246481;22;20000;-80
2023/04/17 13:36:58;;;;;;;12.68;8.50;;;;;;;;;;6245681;22;20107;-81
2023/04/17 13:39:24;;;;;;;11.82;8.10;;;;;;;;;;6243707;22;20004;-80
2023/04/17 13:41:49;;;;;;;12.70;8.63;;;;;;;;;;6243425;22;19996;-80
2023/04/17 13:44:15;;;;;;;14.43;8.77;;;;;;;;;;6244773;22;20079;-80
2023/04/17 13:46:40;;;;;;;12.85;8.50;;;;;;;;;;6242794;23;20004;-81
2023/04/17 13:49:06;;;;;;;13.43;8.07;;;;;;;;;;6241172;23;20008;-80
2023/04/17 13:51:32;;;;;;;13.20;7.85;;;;;;;;;;6238903;22;20000;-80
2023/04/17 13:53:57;;;;;;;11.95;6.82;;;;;;;;;;6242381;22;20004;-81
2023/04/17 13:56:23;;;;;;;10.77;6.93;;;;;;;;;;6240911;22;20008;-80
2023/04/17 13:58:51;;;;;;;12.82;8.18;;;;;;;;;;6241731;22;20028;-80
2023/04/17 14:01:16;;;;;;;11.77;8.05;;;;;;;;;;6239733;23;20007;-80
2023/04/17 14:03:41;;;;;;;11.60;8.20;;;;;;;;;;6241594;22;20008;-80
2023/04/17 14:06:07;;;;;;;12.32;7.80;;;;;;;;;;6240744;22;20010;-81
2023/04/17 14:08:32;;;;;;;10.77;7.50;;;;;;;;;;6239691;22;20015;-80
2023/04/17 14:10:57;;;;;;;11.13;7.88;;;;;;;;;;6236817;23;20012;-80
2023/04/17 14:13:23;;;;;;;11.60;8.20;;;;;;;;;;6239875;23;20400;-80
2023/04/17 14:15:52;;;;;;;12.32;8.35;;;;;;;;;;6241267;22;20303;-79